Time;durP1;ratioP1;P1;durP2;ratioP2;P2;SDS_P1;SDS_P2;PMS_P1;PMS_P2;Temp;Humidity;BMP_temperature;BMP_pressure;BME280_temperature;BME280_humidity;BME280_pressure;Samples;Min_cycle;Max_cycle;Signal;HPM_P1;HPM_P2
2022/11/16 00:02:08;;;;;;;3.85;1.42;;;12.70;99.90;;;;;;5051564;28;20025;-81
2022/11/16 00:04:34;;;;;;;2.17;1.38;;;12.70;99.90;;;;;;5052620;28;20045;-81
2022/11/16 00:07:03;;;;;;;4.10;1.80;;;12.70;99.90;;;;;;5052392;28;20051;-81
2022/11/16 00:09:30;;;;;;;2.67;1.42;;;12.60;99.90;;;;;;5052544;28;20037;-81
2022/11/16 00:11:58;;;;;;;3.35;1.80;;;12.60;99.90;;;;;;5067905;28;20039;-81
2022/11/16 00:14:26;;;;;;;4.00;1.77;;;12.80;99.90;;;;;;5094960;28;20498;-81
2022/11/16 00:16:52;;;;;;;6.13;2.10;;;12.70;99.90;;;;;;5094737;28;20036;-81
2022/11/16 00:19:18;;;;;;;3.20;2.30;;;12.90;99.90;;;;;;5094727;28;20032;-81
2022/11/16 00:21:43;;;;;;;2.53;2.00;;;12.80;99.90;;;;;;5094757;28;20063;-81
2022/11/16 00:24:14;;;;;;;2.60;2.05;;;12.50;99.90;;;;;;5094780;28;20625;-81
2022/11/16 00:26:40;;;;;;;2.92;1.50;;;12.50;99.90;;;;;;5095207;28;20035;-81
2022/11/16 00:29:09;;;;;;;3.35;1.75;;;12.40;99.90;;;;;;5094839;28;20035;-81
2022/11/16 00:31:34;;;;;;;5.63;4.10;;;12.30;99.90;;;;;;5094441;28;20024;-81
2022/11/16 00:34:00;;;;;;;4.07;3.05;;;12.40;99.90;;;;;;5094465;28;20032;-81
2022/11/16 00:36:26;;;;;;;6.25;2.80;;;12.50;99.90;;;;;;5094149;28;20040;-81
2022/11/16 00:38:54;;;;;;;4.28;2.90;;;12.60;99.90;;;;;;5094160;28;20024;-81
2022/11/16 00:41:20;;;;;;;5.63;2.67;;;12.60;99.90;;;;;;5093180;28;20036;-81
2022/11/16 00:43:46;;;;;;;2.42;1.80;;;12.60;99.90;;;;;;5094179;28;20028;-81
2022/11/16 00:46:11;;;;;;;2.92;1.63;;;12.60;99.90;;;;;;5076159;28;20400;-81
2022/11/16 00:48:37;;;;;;;1.48;1.38;;;12.60;99.90;;;;;;5094202;28;20039;-81
2022/11/16 00:51:02;;;;;;;1.95;1.33;;;12.80;99.90;;;;;;5094374;28;20028;-81
2022/11/16 00:53:28;;;;;;;2.83;1.20;;;12.50;99.90;;;;;;5094284;28;20400;-81
2022/11/16 00:55:54;;;;;;;2.20;1.20;;;12.80;99.90;;;;;;5094060;28;20450;-81
2022/11/16 00:58:19;;;;;;;2.95;1.33;;;12.40;99.90;;;;;;5093712;28;20488;-81
2022/11/16 01:00:45;;;;;;;1.85;1.30;;;12.40;99.90;;;;;;5094182;28;20081;-81
2022/11/16 01:03:11;;;;;;;1.40;1.30;;;12.40;99.90;;;;;;5093949;28;20020;-81
2022/11/16 01:05:36;;;;;;;1.33;1.10;;;12.60;99.90;;;;;;5093908;28;20047;-81
2022/11/16 01:08:02;;;;;;;1.30;1.20;;;12.40;99.90;;;;;;5094111;28;20472;-81
2022/11/16 01:10:28;;;;;;;2.15;1.42;;;12.40;99.90;;;;;;5093756;28;20103;-81
2022/11/16 01:12:54;;;;;;;2.78;1.20;;;12.50;99.90;;;;;;5093307;28;20024;-81
2022/11/16 01:15:21;;;;;;;2.08;1.30;;;12.30;99.90;;;;;;5093557;28;20073;-81
2022/11/16 01:17:47;;;;;;;2.25;1.50;;;12.30;99.90;;;;;;5093478;28;20054;-81
2022/11/16 01:20:16;;;;;;;6.50;1.50;;;12.30;99.90;;;;;;5093988;28;20028;-81
2022/11/16 01:22:42;;;;;;;2.00;1.30;;;12.30;99.90;;;;;;5093477;28;20031;-81
2022/11/16 01:25:09;;;;;;;3.72;1.33;;;12.20;99.90;;;;;;5094379;28;20039;-81
2022/11/16 01:27:35;;;;;;;3.55;1.33;;;12.20;99.90;;;;;;5093197;28;20026;-80
2022/11/16 01:30:00;;;;;;;4.55;1.50;;;12.50;99.90;;;;;;5093407;28;20051;-81
2022/11/16 01:32:26;;;;;;;1.90;1.40;;;12.30;99.90;;;;;;5093341;28;20051;-81
2022/11/16 01:34:52;;;;;;;2.80;1.35;;;12.10;99.90;;;;;;5093202;28;20122;-81
2022/11/16 01:37:18;;;;;;;2.08;1.55;;;12.20;99.90;;;;;;5093549;28;20028;-81
2022/11/16 01:39:43;;;;;;;2.17;1.70;;;12.20;99.90;;;;;;5093095;28;20027;-81
2022/11/16 01:42:21;;;;;;;2.42;1.52;;;12.20;99.90;;;;;;5093232;28;20454;-80
2022/11/16 01:44:47;;;;;;;2.63;1.70;;;12.20;99.90;;;;;;5092960;28;20132;-81
2022/11/16 01:47:14;;;;;;;1.75;1.65;;;12.00;99.90;;;;;;5091885;28;20139;-81
2022/11/16 01:49:44;;;;;;;2.83;1.90;;;12.00;99.90;;;;;;5093160;28;20028;-81
2022/11/16 01:52:15;;;;;;;3.80;1.92;;;12.30;99.90;;;;;;5092919;28;20035;-80
2022/11/16 01:54:44;;;;;;;3.13;1.83;;;12.10;99.90;;;;;;5092946;28;20031;-80
2022/11/16 01:57:15;;;;;;;2.67;1.95;;;11.90;99.90;;;;;;5092477;28;20024;-80
2022/11/16 01:59:41;;;;;;;2.72;1.70;;;11.90;99.90;;;;;;5093723;28;20485;-80
2022/11/16 02:02:06;;;;;;;2.28;1.70;;;12.10;99.90;;;;;;5092913;28;20028;-80
2022/11/16 02:04:32;;;;;;;2.40;2.17;;;12.00;99.90;;;;;;5092680;28;20090;-81
2022/11/16 02:07:11;;;;;;;4.70;2.75;;;12.00;99.90;;;;;;5093205;28;20023;-81
2022/11/16 02:09:59;;;;;;;4.32;2.30;;;12.00;99.90;;;;;;5092722;28;20035;-80
2022/11/16 02:12:43;;;;;;;7.60;3.00;;;11.90;99.90;;;;;;5092210;28;20442;-81
2022/11/16 02:15:30;;;;;;;4.50;2.90;;;11.90;99.90;;;;;;5092563;28;20032;-80
2022/11/16 02:18:16;;;;;;;3.70;2.88;;;11.90;99.90;;;;;;5092391;28;20067;-81
2022/11/16 02:21:05;;;;;;;3.50;2.88;;;11.80;99.90;;;;;;5092354;28;20035;-80
2022/11/16 02:23:48;;;;;;;2.90;2.50;;;11.80;99.90;;;;;;5078879;28;20059;-80
2022/11/16 02:26:32;;;;;;;8.63;2.67;;;11.80;99.90;;;;;;5091801;28;20510;-81
2022/11/16 02:29:17;;;;;;;4.82;2.83;;;11.80;99.90;;;;;;5092327;28;20476;-80
2022/11/16 02:32:18;;;;;;;3.20;2.90;;;11.70;99.90;;;;;;5092538;28;20032;-80
2022/11/16 02:34:54;;;;;;;5.03;2.83;;;11.70;99.90;;;;;;5010057;28;20041;-80
2022/11/16 02:37:23;;;;;;;4.00;2.45;;;11.60;99.90;;;;;;5011335;28;20030;-80
2022/11/16 02:39:54;;;;;;;4.90;2.72;;;11.60;99.90;;;;;;5010938;28;20033;-80
2022/11/16 02:42:28;;;;;;;5.15;3.08;;;11.60;99.90;;;;;;5010246;28;20018;-80
2022/11/16 02:44:56;;;;;;;4.20;2.80;;;11.60;99.90;;;;;;5010387;28;20049;-80
2022/11/16 02:47:26;;;;;;;3.55;2.80;;;11.80;99.90;;;;;;5010231;28;20050;-81
2022/11/16 02:50:01;;;;;;;4.00;3.22;;;11.50;99.90;;;;;;5010225;28;20042;-80
2022/11/16 02:52:28;;;;;;;4.68;3.00;;;11.50;99.90;;;;;;5009951;28;20120;-80
2022/11/16 02:54:54;;;;;;;4.93;3.28;;;11.50;99.90;;;;;;5009875;28;20033;-81
2022/11/16 02:57:42;;;;;;;4.78;3.63;;;11.50;99.90;;;;;;5010178;28;20512;-80
2022/11/16 03:00:14;;;;;;;3.80;3.20;;;11.50;99.90;;;;;;5010624;28;20111;-80
2022/11/16 03:02:52;;;;;;;3.92;3.42;;;11.40;99.90;;;;;;5010440;28;20045;-80
2022/11/16 03:05:30;;;;;;;6.78;3.10;;;11.40;99.90;;;;;;5010071;28;20133;-81
2022/11/16 03:08:20;;;;;;;3.97;3.38;;;11.40;99.90;;;;;;5009893;28;20022;-80
2022/11/16 03:13:40;;;;;;;7.47;3.30;;;11.30;99.90;;;;;;5092730;28;20077;-80
2022/11/16 03:16:19;;;;;;;5.85;3.10;;;11.20;99.90;;;;;;5092015;28;20107;-81
2022/11/16 03:18:48;;;;;;;6.72;3.50;;;11.20;99.90;;;;;;5091788;28;20033;-81
2022/11/16 03:21:27;;;;;;;3.90;3.17;;;11.20;99.90;;;;;;5091792;28;20032;-81
2022/11/16 03:23:53;;;;;;;5.95;3.25;;;11.10;99.90;;;;;;5091525;28;20461;-80
2022/11/16 03:26:23;;;;;;;4.43;3.20;;;11.10;99.90;;;;;;5091752;28;20048;-80
2022/11/16 03:29:07;;;;;;;3.67;3.10;;;11.20;99.90;;;;;;5092289;28;20031;-81
2022/11/16 03:31:41;;;;;;;6.28;3.30;;;11.10;99.90;;;;;;5091793;28;20136;-81
2022/11/16 03:34:11;;;;;;;4.50;2.97;;;11.10;99.90;;;;;;5071816;28;20029;-80
2022/11/16 03:36:41;;;;;;;4.78;3.47;;;11.10;99.90;;;;;;5072554;28;20504;-80
2022/11/16 03:39:14;;;;;;;4.53;3.40;;;11.10;99.90;;;;;;5074861;28;20423;-81
2022/11/16 03:41:42;;;;;;;4.30;3.15;;;11.10;99.90;;;;;;5075176;28;20024;-80
2022/11/16 03:44:11;;;;;;;4.47;3.10;;;11.00;99.90;;;;;;5075617;28;20033;-81
2022/11/16 03:46:37;;;;;;;3.97;3.40;;;11.00;99.90;;;;;;5076319;28;20025;-81
2022/11/16 03:49:04;;;;;;;5.35;3.20;;;11.00;99.90;;;;;;5075104;28;20051;-81
2022/11/16 03:51:30;;;;;;;3.95;3.53;;;11.00;99.90;;;;;;5075063;28;20104;-81
2022/11/16 03:53:55;;;;;;;4.50;3.28;;;11.00;99.90;;;;;;5074751;28;20059;-80
2022/11/16 03:56:21;;;;;;;4.20;3.25;;;11.00;99.90;;;;;;5075329;28;20077;-80
2022/11/16 03:58:47;;;;;;;4.75;3.08;;;11.00;99.90;;;;;;5074955;28;20422;-81
2022/11/16 04:01:13;;;;;;;4.75;3.10;;;11.20;99.90;;;;;;5073659;28;20079;-81
2022/11/16 04:03:38;;;;;;;3.65;2.60;;;10.90;99.90;;;;;;5074805;28;20017;-81
2022/11/16 04:25:37;;;;;;;5.22;2.13;;;10.90;99.90;;;;;;5094651;28;20128;-80
2022/11/16 04:28:12;;;;;;;3.20;1.80;;;10.70;99.90;;;;;;5094803;28;20027;-80
2022/11/16 04:38:57;;;;;;;2.70;1.80;;;10.90;99.90;;;;;;5094404;28;20035;-81
2022/11/16 04:44:07;;;;;;;3.13;1.50;;;10.80;99.90;;;;;;5094063;28;20035;-81
2022/11/16 04:49:16;;;;;;;3.53;1.70;;;10.70;99.90;;;;;;5094124;28;20043;-81
2022/11/16 04:51:42;;;;;;;3.33;1.70;;;10.70;99.90;;;;;;5093867;28;20032;-81
2022/11/16 04:54:08;;;;;;;1.83;1.63;;;11.10;99.90;;;;;;5094228;28;20020;-80
2022/11/16 04:56:33;;;;;;;2.25;1.50;;;10.70;99.90;;;;;;5094379;28;20036;-81
2022/11/16 04:58:59;;;;;;;2.67;1.40;;;10.90;99.90;;;;;;5093997;28;20095;-81
2022/11/16 05:04:09;;;;;;;4.68;1.48;;;10.90;99.90;;;;;;5093857;28;20050;-81
2022/11/16 05:06:34;;;;;;;2.63;1.40;;;10.60;99.90;;;;;;5075504;28;20058;-81
2022/11/16 05:09:00;;;;;;;5.32;1.90;;;10.90;99.90;;;;;;5093808;28;20048;-81
2022/11/16 05:11:25;;;;;;;2.55;1.50;;;10.60;99.90;;;;;;5094084;28;20108;-81
2022/11/16 05:13:51;;;;;;;1.98;1.20;;;10.30;99.90;;;;;;5093716;28;20028;-81
2022/11/16 05:16:17;;;;;;;4.13;1.73;;;10.20;99.90;;;;;;5094080;28;20024;-81
2022/11/16 05:18:43;;;;;;;4.10;1.73;;;10.30;99.90;;;;;;5093293;28;20024;-81
2022/11/16 05:21:09;;;;;;;4.68;2.90;;;10.10;99.90;;;;;;5093599;28;20810;-81
2022/11/16 05:26:18;;;;;;;4.28;2.40;;;10.40;99.90;;;;;;5093742;28;20574;-81
2022/11/16 05:28:45;;;;;;;3.90;2.80;;;9.90;99.90;;;;;;5093332;28;20102;-80
2022/11/16 05:31:10;;;;;;;6.88;3.13;;;9.90;99.90;;;;;;5093151;28;20016;-81
2022/11/16 05:33:36;;;;;;;9.25;3.38;;;9.80;99.90;;;;;;5093075;28;20039;-80
2022/11/16 05:36:01;;;;;;;4.50;3.15;;;9.80;99.90;;;;;;5093145;28;20038;-81
2022/11/16 05:38:27;;;;;;;5.95;3.20;;;9.70;99.90;;;;;;5093286;28;20518;-80
2022/11/16 05:40:53;;;;;;;3.88;3.28;;;9.70;99.90;;;;;;5093247;28;20131;-81
2022/11/16 05:43:18;;;;;;;4.88;3.60;;;9.60;99.90;;;;;;5093556;28;20024;-81
2022/11/16 05:45:44;;;;;;;7.03;5.32;;;9.60;99.90;;;;;;5093114;28;20103;-81
2022/11/16 05:48:09;;;;;;;7.90;5.63;;;9.60;99.90;;;;;;5092788;28;20048;-81
2022/11/16 05:50:35;;;;;;;7.20;5.90;;;9.90;99.90;;;;;;5093372;28;20039;-81
2022/11/16 05:53:00;;;;;;;6.90;4.55;;;9.90;99.90;;;;;;5092936;28;20260;-81
2022/11/16 05:55:26;;;;;;;6.20;4.55;;;9.60;99.90;;;;;;5092977;28;20396;-80
2022/11/16 05:57:51;;;;;;;6.32;4.22;;;9.50;99.90;;;;;;5093012;28;20016;-81
2022/11/16 06:00:17;;;;;;;7.40;4.22;;;9.50;99.90;;;;;;5092262;28;20031;-81
2022/11/16 06:02:43;;;;;;;3.95;3.53;;;9.50;99.90;;;;;;5092454;28;20386;-80
2022/11/16 06:05:08;;;;;;;5.80;3.22;;;9.50;99.90;;;;;;5092645;28;20047;-80
2022/11/16 06:07:34;;;;;;;3.80;3.10;;;9.60;99.90;;;;;;5092701;28;20028;-80
2022/11/16 06:10:00;;;;;;;3.40;3.00;;;9.40;99.90;;;;;;5092619;28;20062;-80
2022/11/16 06:12:25;;;;;;;4.35;2.92;;;9.50;99.90;;;;;;5093139;28;20373;-80
2022/11/16 06:14:51;;;;;;;4.22;3.05;;;9.80;99.90;;;;;;5092581;28;20133;-81
2022/11/16 06:17:17;;;;;;;4.68;3.20;;;9.40;99.90;;;;;;5073807;28;20081;-81
2022/11/16 06:19:42;;;;;;;4.85;2.88;;;9.40;99.90;;;;;;5092552;28;20097;-81
2022/11/16 06:22:08;;;;;;;5.50;2.97;;;9.40;99.90;;;;;;5092846;28;20020;-81
2022/11/16 06:24:33;;;;;;;5.22;2.65;;;9.40;99.90;;;;;;5092306;28;20047;-80
2022/11/16 06:26:59;;;;;;;4.97;3.10;;;9.50;99.90;;;;;;5092270;28;20431;-80
2022/11/16 06:29:24;;;;;;;4.60;3.33;;;9.60;99.90;;;;;;5092702;28;20028;-81
2022/11/16 06:31:50;;;;;;;3.60;3.03;;;9.70;99.90;;;;;;5091947;28;20031;-80
2022/11/16 06:34:15;;;;;;;4.93;3.28;;;9.30;99.90;;;;;;5092263;28;20395;-80
2022/11/16 06:36:41;;;;;;;5.57;3.50;;;9.30;99.90;;;;;;5092147;28;20086;-81
2022/11/16 06:39:07;;;;;;;4.72;2.22;;;9.20;99.90;;;;;;5092418;28;20040;-81
2022/11/16 06:41:33;;;;;;;6.85;2.78;;;9.30;99.90;;;;;;5092105;28;20028;-81
2022/11/16 06:43:59;;;;;;;3.25;2.60;;;9.40;99.90;;;;;;5092123;28;20028;-81
2022/11/16 06:46:24;;;;;;;4.28;2.42;;;9.40;99.90;;;;;;5092029;28;20093;-81
2022/11/16 06:48:50;;;;;;;4.68;2.28;;;9.60;99.90;;;;;;5092192;28;20028;-81
2022/11/16 06:51:16;;;;;;;3.58;2.53;;;9.30;99.90;;;;;;5092091;28;20038;-81
2022/11/16 06:53:42;;;;;;;5.85;2.45;;;9.40;99.90;;;;;;5092368;28;20521;-81
2022/11/16 06:56:11;;;;;;;4.05;2.15;;;9.30;99.90;;;;;;5092042;28;20541;-80
2022/11/16 06:58:36;;;;;;;3.10;2.03;;;9.30;99.90;;;;;;5092208;28;20031;-81
2022/11/16 07:01:10;;;;;;;4.93;2.40;;;9.30;99.90;;;;;;5091576;28;20024;-81
2022/11/16 07:03:35;;;;;;;4.95;2.22;;;9.30;99.90;;;;;;5091970;28;20031;-81
2022/11/16 07:06:07;;;;;;;3.90;2.60;;;9.20;99.90;;;;;;5092045;28;20032;-81
2022/11/16 07:08:32;;;;;;;4.18;2.83;;;9.20;99.90;;;;;;5091403;28;20027;-80
2022/11/16 07:11:02;;;;;;;6.10;3.17;;;9.30;99.90;;;;;;5092039;28;20032;-81
2022/11/16 07:13:27;;;;;;;4.07;2.63;;;9.30;99.90;;;;;;5095951;28;20016;-80
2022/11/16 07:15:53;;;;;;;7.55;3.15;;;9.30;99.90;;;;;;5095799;28;20034;-81
2022/11/16 07:18:18;;;;;;;3.80;3.50;;;9.40;99.90;;;;;;5078366;28;20570;-83
2022/11/16 07:20:44;;;;;;;7.25;4.90;;;10.00;99.90;;;;;;5096214;28;20396;-83
2022/11/16 07:23:10;;;;;;;5.28;4.47;;;9.80;99.90;;;;;;5095837;28;20047;-83
2022/11/16 07:25:35;;;;;;;6.47;4.53;;;9.30;99.90;;;;;;5095816;28;20116;-82
2022/11/16 07:28:01;;;;;;;5.78;5.18;;;9.50;99.90;;;;;;5096292;28;20036;-83
2022/11/16 07:30:26;;;;;;;7.65;4.80;;;9.70;99.90;;;;;;5095308;28;20526;-83
2022/11/16 07:32:57;;;;;;;7.25;5.00;;;10.10;99.90;;;;;;5095711;28;20554;-83
2022/11/16 07:35:23;;;;;;;6.13;3.45;;;10.50;99.90;;;;;;5095542;28;20052;-83
2022/11/16 07:37:48;;;;;;;3.88;3.47;;;10.60;99.90;;;;;;5095962;28;20031;-83
2022/11/16 07:40:14;;;;;;;3.42;3.13;;;10.70;99.90;;;;;;5095457;28;20074;-83
2022/11/16 07:42:40;;;;;;;6.57;3.22;;;11.60;99.90;;;;;;5095306;28;20476;-83
2022/11/16 07:45:07;;;;;;;6.18;2.92;;;11.90;99.90;;;;;;5095148;28;20060;-83
2022/11/16 07:47:36;;;;;;;2.88;2.30;;;12.10;99.90;;;;;;5095352;28;20114;-83
2022/11/16 07:50:04;;;;;;;5.68;2.22;;;12.90;99.90;;;;;;5095365;28;20016;-84
2022/11/16 07:52:29;;;;;;;5.93;3.92;;;15.20;99.90;;;;;;5095348;28;20064;-84
2022/11/16 07:54:55;;;;;;;5.18;3.55;;;16.00;99.90;;;;;;5093944;28;20474;-83
2022/11/16 07:57:21;;;;;;;4.72;3.60;;;15.90;99.90;;;;;;5095244;28;20107;-83
2022/11/16 07:59:46;;;;;;;8.00;5.47;;;15.30;99.90;;;;;;5095056;28;20062;-84
2022/11/16 08:02:12;;;;;;;4.72;3.20;;;16.00;99.90;;;;;;5095257;28;20028;-84
2022/11/16 08:04:37;;;;;;;4.40;2.35;;;17.10;99.90;;;;;;5094868;28;20032;-84
2022/11/16 08:07:04;;;;;;;8.32;3.63;;;19.40;99.90;;;;;;5095388;28;20116;-84
2022/11/16 08:09:29;;;;;;;5.70;3.13;;;21.20;99.90;;;;;;5095135;28;20043;-84
2022/11/16 08:11:55;;;;;;;5.93;2.70;;;23.30;99.90;;;;;;5094912;28;20484;-84
2022/11/16 08:14:20;;;;;;;3.15;2.33;;;23.00;99.90;;;;;;5094591;28;20046;-84
2022/11/16 08:16:46;;;;;;;3.60;2.83;;;23.70;99.90;;;;;;5095190;28;20020;-84
2022/11/16 08:19:12;;;;;;;8.45;3.10;;;23.00;99.90;;;;;;5094762;28;20028;-84
2022/11/16 08:21:37;;;;;;;6.00;3.13;;;23.40;99.90;;;;;;5094677;28;20081;-84
2022/11/16 08:24:03;;;;;;;3.85;3.10;;;23.70;99.90;;;;;;5094158;28;20024;-84
2022/11/16 08:26:29;;;;;;;4.47;3.35;;;24.00;99.90;;;;;;5094695;28;20058;-85
2022/11/16 08:28:55;;;;;;;5.88;3.75;;;23.90;99.90;;;;;;5094295;28;20034;-85
2022/11/16 08:31:24;;;;;;;6.20;3.30;;;24.20;99.90;;;;;;5094774;28;20101;-84
2022/11/16 08:33:51;;;;;;;5.22;3.05;;;25.10;99.90;;;;;;5076116;28;20058;-85
2022/11/16 08:36:17;;;;;;;5.22;2.88;;;24.70;99.90;;;;;;5094405;28;20048;-84
2022/11/16 08:38:44;;;;;;;5.22;2.25;;;25.60;99.90;;;;;;5094405;28;20081;-85
2022/11/16 08:41:10;;;;;;;3.30;2.15;;;26.30;99.90;;;;;;5095050;28;20032;-85
2022/11/16 08:43:38;;;;;;;3.30;2.00;;;27.40;99.90;;;;;;5094534;28;20024;-85
2022/11/16 08:46:04;;;;;;;2.38;1.67;;;28.30;99.90;;;;;;5094318;28;20477;-84
2022/11/16 08:48:29;;;;;;;1.80;1.40;;;29.00;99.90;;;;;;5094304;28;20024;-85
2022/11/16 08:51:02;;;;;;;2.50;1.58;;;27.70;99.90;;;;;;5094515;28;20451;-85
2022/11/16 08:53:28;;;;;;;1.85;1.50;;;26.80;99.90;;;;;;5094275;28;20020;-85
2022/11/16 08:55:54;;;;;;;4.93;1.98;;;26.50;99.90;;;;;;5094119;28;20062;-85
2022/11/16 08:58:19;;;;;;;2.55;1.90;;;25.80;99.90;;;;;;5093708;28;20020;-82
2022/11/16 09:00:45;;;;;;;3.25;2.50;;;21.80;99.90;;;;;;5094376;28;20039;-83
2022/11/16 09:03:10;;;;;;;3.20;2.28;;;20.40;99.90;;;;;;5094005;28;20383;-83
2022/11/16 09:05:37;;;;;;;3.38;2.03;;;19.90;99.90;;;;;;5093915;28;20078;-83
2022/11/16 09:08:04;;;;;;;4.07;1.80;;;19.20;99.90;;;;;;5094259;28;20024;-83
2022/11/16 09:10:30;;;;;;;5.28;3.05;;;18.50;99.90;;;;;;5093783;28;20024;-83
2022/11/16 09:12:56;;;;;;;5.15;4.25;;;17.60;99.90;;;;;;5093943;28;20043;-83
2022/11/16 09:15:22;;;;;;;7.35;5.13;;;16.70;99.90;;;;;;5093839;28;20031;-83
2022/11/16 09:17:47;;;;;;;8.68;4.93;;;16.50;99.90;;;;;;5092237;28;20024;-83
2022/11/16 09:20:13;;;;;;;8.07;5.07;;;16.20;99.90;;;;;;5094954;28;20028;-83
2022/11/16 09:22:39;;;;;;;7.03;4.63;;;16.00;99.90;;;;;;5093666;28;20081;-83
2022/11/16 09:25:05;;;;;;;7.45;5.25;;;16.60;99.90;;;;;;5093634;28;20047;-83
2022/11/16 09:27:31;;;;;;;9.93;4.68;;;20.10;99.90;;;;;;5093352;28;20502;-83
2022/11/16 09:29:57;;;;;;;6.15;4.20;;;24.40;99.90;;;;;;5093603;28;20028;-83
2022/11/16 09:32:22;;;;;;;4.80;4.00;;;29.80;99.90;;;;;;5093677;28;20056;-83
2022/11/16 09:34:48;;;;;;;7.60;4.15;;;32.50;99.90;;;;;;5093104;28;20021;-83
2022/11/16 09:37:14;;;;;;;5.22;3.90;;;33.50;99.90;;;;;;5093447;28;20035;-83
2022/11/16 09:39:39;;;;;;;5.70;3.83;;;28.80;99.90;;;;;;5092930;28;20494;-84
2022/11/16 09:42:23;;;;;;;6.53;3.90;;;31.00;99.90;;;;;;5093478;28;20099;-83
2022/11/16 09:44:58;;;;;;;7.55;4.10;;;32.20;99.90;;;;;;5093196;28;20079;-84
2022/11/16 09:47:38;;;;;;;7.80;4.25;;;33.70;99.90;;;;;;5093395;28;20024;-84
2022/11/16 09:50:07;;;;;;;7.85;4.90;;;32.70;99.90;;;;;;5093007;28;20028;-84
2022/11/16 09:52:40;;;;;;;7.78;5.18;;;28.20;99.90;;;;;;5093195;28;20107;-84
2022/11/16 09:55:47;;;;;;;7.88;4.70;;;30.00;99.90;;;;;;5092634;28;20027;-84
2022/11/16 09:58:18;;;;;;;9.25;4.63;;;31.50;99.90;;;;;;5091110;28;20061;-84
2022/11/16 10:00:53;;;;;;;8.68;4.43;;;32.10;99.90;;;;;;5092944;28;20036;-84
2022/11/16 10:03:18;;;;;;;7.45;4.18;;;32.50;99.90;;;;;;5092879;28;20023;-84
2022/11/16 10:05:49;;;;;;;9.82;4.38;;;33.20;99.90;;;;;;5092907;28;20039;-84
2022/11/16 10:08:40;;;;;;;3.20;2.53;;;33.60;99.90;;;;;;5093250;28;20024;-84
2022/11/16 10:11:17;;;;;;;4.38;2.30;;;33.90;99.90;;;;;;5092649;28;20028;-84
2022/11/16 10:14:15;;;;;;;3.45;2.53;;;34.50;99.90;;;;;;5092526;28;20020;-84
2022/11/16 10:16:51;;;;;;;3.55;2.28;;;34.90;99.90;;;;;;5092859;28;20024;-85
2022/11/16 10:19:46;;;;;;;4.63;2.65;;;36.60;99.90;;;;;;5092520;28;20553;-84
2022/11/16 10:22:26;;;;;;;3.72;2.10;;;35.90;99.90;;;;;;5092715;28;20028;-84
2022/11/16 10:24:57;;;;;;;2.22;1.20;;;34.40;99.90;;;;;;5092232;28;20038;-85
2022/11/16 10:27:29;;;;;;;1.80;1.10;;;33.50;99.90;;;;;;5092748;28;20541;-84
2022/11/16 10:30:06;;;;;;;2.47;1.20;;;32.90;99.90;;;;;;5092874;28;20026;-84
2022/11/16 10:32:38;;;;;;;2.72;1.35;;;35.20;99.90;;;;;;5092504;28;20020;-85
2022/11/16 10:35:16;;;;;;;2.38;1.55;;;33.80;99.90;;;;;;5092626;28;20063;-84
2022/11/16 10:37:50;;;;;;;2.70;1.25;;;36.80;99.90;;;;;;5092506;28;20020;-84
2022/11/16 10:40:37;;;;;;;2.15;0.82;;;38.40;99.90;;;;;;5092858;28;20028;-85
2022/11/16 10:43:18;;;;;;;3.45;0.88;;;36.40;99.90;;;;;;5092426;28;20028;-85
2022/11/16 10:46:15;;;;;;;2.10;1.02;;;32.00;99.90;;;;;;5092111;28;20039;-85
2022/11/16 10:48:57;;;;;;;1.92;0.93;;;26.50;99.90;;;;;;5092362;28;20016;-85
2022/11/16 10:51:23;;;;;;;3.63;1.00;;;25.00;99.90;;;;;;5092401;28;20046;-85
2022/11/16 10:53:49;;;;;;;1.83;1.25;;;23.30;99.90;;;;;;5092003;28;20012;-85
2022/11/16 10:56:36;;;;;;;1.80;0.82;;;25.00;99.90;;;;;;5092940;28;20103;-85
2022/11/16 10:59:04;;;;;;;6.05;1.00;;;24.70;99.90;;;;;;5092457;28;20024;-85
2022/11/16 11:01:36;;;;;;;1.40;0.90;;;24.30;99.90;;;;;;5092489;28;20024;-84
2022/11/16 11:04:20;;;;;;;2.90;0.80;;;22.20;99.90;;;;;;5092101;28;20028;-85
2022/11/16 11:06:50;;;;;;;1.55;0.98;;;24.00;99.90;;;;;;5092496;28;20109;-85
2022/11/16 11:09:21;;;;;;;3.53;1.17;;;24.50;99.90;;;;;;5092296;28;20052;-84
2022/11/16 11:14:41;;;;;;;3.65;1.38;;;24.00;99.90;;;;;;5092933;28;20043;-84
2022/11/16 11:17:11;;;;;;;2.22;1.48;;;23.40;99.90;;;;;;5092152;28;20484;-85
2022/11/16 11:19:36;;;;;;;4.65;1.08;;;25.70;99.90;;;;;;5092357;28;20510;-85
2022/11/16 11:22:02;;;;;;;1.65;0.90;;;30.30;99.90;;;;;;5092340;28;20028;-85
2022/11/16 11:24:28;;;;;;;1.77;0.88;;;29.90;99.90;;;;;;5092050;28;20036;-85
2022/11/16 11:26:57;;;;;;;2.17;0.80;;;31.40;99.90;;;;;;5092276;28;20016;-85
2022/11/16 11:29:30;;;;;;;1.75;0.70;;;30.30;99.90;;;;;;5092476;28;20031;-84
2022/11/16 11:32:02;;;;;;;2.70;1.10;;;29.10;99.90;;;;;;5091931;28;20035;-84
2022/11/16 11:34:33;;;;;;;1.70;0.98;;;29.40;99.90;;;;;;5092207;28;20020;-85
2022/11/16 11:37:03;;;;;;;4.03;1.85;;;29.10;99.90;;;;;;5091573;28;20087;-84
2022/11/16 11:39:36;;;;;;;3.25;1.70;;;28.10;99.90;;;;;;5092132;28;20032;-85
2022/11/16 11:42:04;;;;;;;2.13;1.10;;;29.60;99.90;;;;;;5092093;28;20024;-85
2022/11/16 11:44:42;;;;;;;2.15;1.25;;;30.70;99.90;;;;;;5091740;28;20051;-85
2022/11/16 11:47:43;;;;;;;1.98;0.95;;;30.40;99.90;;;;;;5091940;28;20111;-85
2022/11/16 11:50:19;;;;;;;4.70;1.00;;;30.60;99.90;;;;;;5092041;28;20024;-85
2022/11/16 11:53:10;;;;;;;2.88;0.93;;;28.80;99.90;;;;;;5091960;28;20107;-85
2022/11/16 11:55:36;;;;;;;1.42;0.75;;;30.40;99.90;;;;;;5091902;28;20024;-85
2022/11/16 11:58:04;;;;;;;2.38;1.05;;;31.90;99.90;;;;;;5091815;28;20047;-85
2022/11/16 12:01:15;;;;;;;5.18;1.05;;;34.40;99.90;;;;;;5095402;28;20495;-85
2022/11/16 12:04:15;;;;;;;1.67;1.05;;;31.60;99.90;;;;;;5013723;28;20209;-85
2022/11/16 12:07:13;;;;;;;1.80;0.75;;;33.80;99.90;;;;;;5013586;28;20037;-85
2022/11/16 12:10:02;;;;;;;1.20;0.75;;;32.20;99.90;;;;;;5013388;28;20107;-85
2022/11/16 12:12:44;;;;;;;2.28;1.13;;;33.50;99.90;;;;;;5013252;28;20069;-85
2022/11/16 12:15:34;;;;;;;3.10;0.80;;;33.00;99.90;;;;;;5013048;28;20033;-85
2022/11/16 12:17:59;;;;;;;4.15;1.38;;;31.80;99.90;;;;;;5013090;28;20026;-85
2022/11/16 12:20:40;;;;;;;1.52;0.75;;;28.10;99.90;;;;;;4996626;28;20038;-85
2022/11/16 12:23:43;;;;;;;2.88;1.17;;;26.20;99.90;;;;;;4996878;28;20034;-85
2022/11/16 12:26:27;;;;;;;2.03;0.90;;;27.70;99.90;;;;;;5013147;28;20038;-86
2022/11/16 12:29:05;;;;;;;0.95;0.80;;;32.70;99.90;;;;;;5013391;28;20490;-85
2022/11/16 12:31:33;;;;;;;1.60;0.95;;;34.50;99.90;;;;;;5013533;28;20503;-85
2022/11/16 12:34:45;;;;;;;1.98;0.70;;;35.20;99.90;;;;;;5012294;28;20030;-85
2022/11/16 12:37:24;;;;;;;1.35;0.70;;;34.30;99.90;;;;;;4993426;28;20052;-85
2022/11/16 12:40:27;;;;;;;3.42;0.98;;;31.60;99.90;;;;;;5026546;28;20044;-85
2022/11/16 12:43:27;;;;;;;2.15;0.80;;;30.20;99.90;;;;;;5074549;28;20107;-85
2022/11/16 12:46:10;;;;;;;1.98;0.80;;;32.70;99.90;;;;;;5074546;28;20044;-85
2022/11/16 12:48:49;;;;;;;1.67;0.80;;;34.10;99.90;;;;;;5074133;28;20500;-85
2022/11/16 12:51:36;;;;;;;2.17;0.80;;;34.70;99.90;;;;;;5074396;28;20028;-85
2022/11/16 12:54:16;;;;;;;1.77;0.70;;;34.30;99.90;;;;;;5074399;28;20051;-85
2022/11/16 12:56:42;;;;;;;1.38;0.80;;;34.20;99.90;;;;;;5074371;28;20016;-85
2022/11/16 12:59:46;;;;;;;2.08;0.90;;;33.60;99.90;;;;;;5074605;28;20100;-86
2022/11/16 13:02:30;;;;;;;1.70;1.10;;;29.90;99.90;;;;;;5074456;28;20325;-85
2022/11/16 13:05:16;;;;;;;3.55;0.95;;;28.50;99.90;;;;;;5074279;28;20115;-85
2022/11/16 13:07:50;;;;;;;2.75;1.00;;;29.40;99.90;;;;;;5074302;28;20396;-85
2022/11/16 13:10:26;;;;;;;3.80;1.00;;;29.50;99.90;;;;;;5073736;28;20416;-85
2022/11/16 13:13:00;;;;;;;1.67;0.88;;;27.80;99.90;;;;;;5073958;28;20047;-85
2022/11/16 13:15:39;;;;;;;2.58;1.23;;;28.00;99.90;;;;;;5074018;28;20048;-85
2022/11/16 13:18:10;;;;;;;2.28;0.95;;;29.50;99.90;;;;;;5086314;28;20387;-86
2022/11/16 13:20:51;;;;;;;2.08;1.02;;;30.10;99.90;;;;;;5094460;28;20085;-85
2022/11/16 13:23:52;;;;;;;2.70;1.10;;;27.90;99.90;;;;;;5093915;28;20392;-85
2022/11/16 13:26:39;;;;;;;3.08;1.00;;;26.90;99.90;;;;;;5094047;28;20032;-86
2022/11/16 13:29:36;;;;;;;3.03;0.90;;;28.10;99.90;;;;;;5093991;28;20043;-86
2022/11/16 13:32:11;;;;;;;1.40;0.88;;;27.70;99.90;;;;;;5093884;28;20036;-85
2022/11/16 13:34:38;;;;;;;1.75;0.70;;;30.10;99.90;;;;;;5093625;28;20016;-84
2022/11/16 13:37:38;;;;;;;1.35;0.75;;;29.30;99.90;;;;;;5093870;28;20101;-85
2022/11/16 13:40:03;;;;;;;1.23;0.80;;;30.00;99.90;;;;;;5093829;28;20077;-86
2022/11/16 13:42:32;;;;;;;3.05;1.02;;;30.40;99.90;;;;;;5094276;28;20576;-87
2022/11/16 13:45:07;;;;;;;3.63;1.00;;;30.60;99.90;;;;;;5093746;28;20039;-86
2022/11/16 13:47:34;;;;;;;2.67;0.80;;;28.80;99.90;;;;;;5093461;28;20027;-87
2022/11/16 13:50:02;;;;;;;1.80;0.88;;;28.00;99.90;;;;;;5093675;28;20100;-86
2022/11/16 13:52:47;;;;;;;3.10;0.70;;;27.60;99.90;;;;;;5093526;28;20028;-86
2022/11/16 13:55:15;;;;;;;3.67;0.98;;;27.80;99.90;;;;;;5093446;28;20024;-87